Alafaya, Florida
Current Conditions -  °F | °C
As of 12:55 PM on Sunday 25 Jan 2015 (Local Time) from KTIX Reporting Station
Clear Clear  
Wind Chill: 61°   Ceiling: Unl
Heat Index: 61°   Visibility: 7mi
Dew Point: 36°   Wind: 5mph
Humidity: 39%   Direction: NA
Pressure: 30.04"   Gusts: NA
Location:  28.4078°N, 81.0314°W
Report Text: KTIX 251755Z VRB04KT 7SM SKC 16/02 A3004
Loading
Personal Weather Stations






























Interactive Weather Map New forecast layout! Learn more

10-Day Weather Forecast

Advertisements
Track Severe Weather on mobile